sensor_id;sensor_type;location;lat;lon;timestamp;temperature;humidity
8422;DHT22;4248;48.196;10.924;2022-10-16T00:01:58;13.40;66.60
8422;DHT22;4248;48.196;10.924;2022-10-16T00:04:23;13.40;66.40
8422;DHT22;4248;48.196;10.924;2022-10-16T00:06:49;13.50;66.40
8422;DHT22;4248;48.196;10.924;2022-10-16T00:09:14;13.50;66.40
8422;DHT22;4248;48.196;10.924;2022-10-16T00:11:41;13.50;66.10
8422;DHT22;4248;48.196;10.924;2022-10-16T00:14:10;13.60;66.10
8422;DHT22;4248;48.196;10.924;2022-10-16T00:16:36;13.60;65.90
8422;DHT22;4248;48.196;10.924;2022-10-16T00:19:02;13.60;65.80
8422;DHT22;4248;48.196;10.924;2022-10-16T00:21:29;13.70;65.90
8422;DHT22;4248;48.196;10.924;2022-10-16T00:24:01;13.70;65.60
8422;DHT22;4248;48.196;10.924;2022-10-16T00:26:28;13.70;65.80
8422;DHT22;4248;48.196;10.924;2022-10-16T00:28:54;13.70;66.00
8422;DHT22;4248;48.196;10.924;2022-10-16T00:31:21;13.70;66.00
8422;DHT22;4248;48.196;10.924;2022-10-16T00:33:48;13.70;66.20
8422;DHT22;4248;48.196;10.924;2022-10-16T00:36:16;13.70;65.50
8422;DHT22;4248;48.196;10.924;2022-10-16T00:38:42;13.70;66.50
8422;DHT22;4248;48.196;10.924;2022-10-16T00:41:12;13.70;66.70
8422;DHT22;4248;48.196;10.924;2022-10-16T00:48:48;13.60;67.10
8422;DHT22;4248;48.196;10.924;2022-10-16T00:51:15;13.60;67.20
8422;DHT22;4248;48.196;10.924;2022-10-16T00:53:41;13.60;67.20
8422;DHT22;4248;48.196;10.924;2022-10-16T00:56:07;13.60;67.30
8422;DHT22;4248;48.196;10.924;2022-10-16T00:58:32;13.70;67.40
8422;DHT22;4248;48.196;10.924;2022-10-16T01:00:58;13.60;67.20
8422;DHT22;4248;48.196;10.924;2022-10-16T01:03:31;13.60;67.40
8422;DHT22;4248;48.196;10.924;2022-10-16T01:08:34;13.60;67.60
8422;DHT22;4248;48.196;10.924;2022-10-16T01:11:15;13.50;67.20
8422;DHT22;4248;48.196;10.924;2022-10-16T01:13:46;13.60;67.10
8422;DHT22;4248;48.196;10.924;2022-10-16T01:22:01;13.60;66.60
8422;DHT22;4248;48.196;10.924;2022-10-16T01:24:37;13.60;66.50
8422;DHT22;4248;48.196;10.924;2022-10-16T01:29:48;13.60;66.80
8422;DHT22;4248;48.196;10.924;2022-10-16T01:34:54;13.50;67.50
8422;DHT22;4248;48.196;10.924;2022-10-16T01:37:31;13.50;67.60
8422;DHT22;4248;48.196;10.924;2022-10-16T01:40:00;13.50;67.60
8422;DHT22;4248;48.196;10.924;2022-10-16T01:42:33;13.50;67.60
8422;DHT22;4248;48.196;10.924;2022-10-16T01:45:00;13.50;67.60
8422;DHT22;4248;48.196;10.924;2022-10-16T01:47:27;13.60;67.80
8422;DHT22;4248;48.196;10.924;2022-10-16T01:49:56;13.60;67.70
8422;DHT22;4248;48.196;10.924;2022-10-16T01:52:26;13.60;67.70
8422;DHT22;4248;48.196;10.924;2022-10-16T01:54:55;13.60;67.70
8422;DHT22;4248;48.196;10.924;2022-10-16T01:57:24;13.50;67.60
8422;DHT22;4248;48.196;10.924;2022-10-16T01:59:53;13.50;67.70
8422;DHT22;4248;48.196;10.924;2022-10-16T02:02:20;13.40;68.40
8422;DHT22;4248;48.196;10.924;2022-10-16T02:04:51;13.30;68.90
8422;DHT22;4248;48.196;10.924;2022-10-16T02:07:18;13.30;69.00
8422;DHT22;4248;48.196;10.924;2022-10-16T02:09:44;13.30;69.30
8422;DHT22;4248;48.196;10.924;2022-10-16T02:12:15;13.30;69.20
8422;DHT22;4248;48.196;10.924;2022-10-16T02:14:44;13.30;69.30
8422;DHT22;4248;48.196;10.924;2022-10-16T02:17:15;13.20;69.30
8422;DHT22;4248;48.196;10.924;2022-10-16T02:19:42;13.10;69.60
8422;DHT22;4248;48.196;10.924;2022-10-16T02:22:14;13.10;70.30
8422;DHT22;4248;48.196;10.924;2022-10-16T02:24:54;13.10;70.10
8422;DHT22;4248;48.196;10.924;2022-10-16T02:30:11;13.00;70.20
8422;DHT22;4248;48.196;10.924;2022-10-16T02:32:40;13.00;70.30
8422;DHT22;4248;48.196;10.924;2022-10-16T02:35:08;13.00;70.40
8422;DHT22;4248;48.196;10.924;2022-10-16T02:37:34;13.00;70.20
8422;DHT22;4248;48.196;10.924;2022-10-16T02:40:01;13.00;70.00
8422;DHT22;4248;48.196;10.924;2022-10-16T02:42:31;13.10;70.00
8422;DHT22;4248;48.196;10.924;2022-10-16T02:44:58;13.20;69.70
8422;DHT22;4248;48.196;10.924;2022-10-16T02:47:23;13.30;69.40
8422;DHT22;4248;48.196;10.924;2022-10-16T02:49:49;13.30;68.90
8422;DHT22;4248;48.196;10.924;2022-10-16T02:52:14;13.40;68.70
8422;DHT22;4248;48.196;10.924;2022-10-16T02:54:40;13.40;68.40
8422;DHT22;4248;48.196;10.924;2022-10-16T02:57:05;13.50;68.40
8422;DHT22;4248;48.196;10.924;2022-10-16T02:59:31;13.50;68.30
8422;DHT22;4248;48.196;10.924;2022-10-16T03:01:56;13.50;68.30
8422;DHT22;4248;48.196;10.924;2022-10-16T03:04:22;13.70;68.70
8422;DHT22;4248;48.196;10.924;2022-10-16T03:06:48;13.60;68.60
8422;DHT22;4248;48.196;10.924;2022-10-16T03:09:13;13.70;68.60
8422;DHT22;4248;48.196;10.924;2022-10-16T03:11:39;13.70;68.50
8422;DHT22;4248;48.196;10.924;2022-10-16T03:14:04;13.80;68.70
8422;DHT22;4248;48.196;10.924;2022-10-16T03:16:30;13.80;68.70
8422;DHT22;4248;48.196;10.924;2022-10-16T03:18:56;13.80;68.70
8422;DHT22;4248;48.196;10.924;2022-10-16T03:21:21;13.80;68.50
8422;DHT22;4248;48.196;10.924;2022-10-16T03:23:47;13.80;68.20
8422;DHT22;4248;48.196;10.924;2022-10-16T03:26:12;13.80;67.60
8422;DHT22;4248;48.196;10.924;2022-10-16T03:28:38;13.80;68.70
8422;DHT22;4248;48.196;10.924;2022-10-16T03:31:03;13.90;68.60
8422;DHT22;4248;48.196;10.924;2022-10-16T03:33:29;13.90;68.30
8422;DHT22;4248;48.196;10.924;2022-10-16T03:35:55;14.00;68.10
8422;DHT22;4248;48.196;10.924;2022-10-16T03:38:21;14.00;68.20
8422;DHT22;4248;48.196;10.924;2022-10-16T03:40:46;14.00;68.10
8422;DHT22;4248;48.196;10.924;2022-10-16T03:43:12;14.00;68.10
8422;DHT22;4248;48.196;10.924;2022-10-16T03:45:37;14.00;68.20
8422;DHT22;4248;48.196;10.924;2022-10-16T03:48:03;14.00;68.20
8422;DHT22;4248;48.196;10.924;2022-10-16T03:50:29;14.00;68.20
8422;DHT22;4248;48.196;10.924;2022-10-16T03:52:55;13.90;68.50
8422;DHT22;4248;48.196;10.924;2022-10-16T03:55:21;14.00;68.70
8422;DHT22;4248;48.196;10.924;2022-10-16T03:57:46;14.00;68.20
8422;DHT22;4248;48.196;10.924;2022-10-16T04:00:12;14.00;68.10
8422;DHT22;4248;48.196;10.924;2022-10-16T04:02:38;14.10;68.20
8422;DHT22;4248;48.196;10.924;2022-10-16T04:05:04;14.10;68.20
8422;DHT22;4248;48.196;10.924;2022-10-16T04:07:30;14.10;68.20
8422;DHT22;4248;48.196;10.924;2022-10-16T04:09:55;14.10;68.20
8422;DHT22;4248;48.196;10.924;2022-10-16T04:12:22;14.10;69.40
8422;DHT22;4248;48.196;10.924;2022-10-16T04:14:48;14.10;68.20
8422;DHT22;4248;48.196;10.924;2022-10-16T04:17:13;14.20;68.30
8422;DHT22;4248;48.196;10.924;2022-10-16T04:19:39;14.20;68.30
8422;DHT22;4248;48.196;10.924;2022-10-16T04:22:04;14.20;68.30
8422;DHT22;4248;48.196;10.924;2022-10-16T04:24:30;14.10;68.20
8422;DHT22;4248;48.196;10.924;2022-10-16T04:26:55;14.10;68.20
8422;DHT22;4248;48.196;10.924;2022-10-16T04:29:21;14.10;68.20
8422;DHT22;4248;48.196;10.924;2022-10-16T04:31:47;14.10;68.20
8422;DHT22;4248;48.196;10.924;2022-10-16T04:34:12;14.10;68.20
8422;DHT22;4248;48.196;10.924;2022-10-16T04:36:38;14.10;68.20
8422;DHT22;4248;48.196;10.924;2022-10-16T04:39:03;14.10;68.20
8422;DHT22;4248;48.196;10.924;2022-10-16T04:41:29;14.10;68.20
8422;DHT22;4248;48.196;10.924;2022-10-16T04:43:54;14.00;68.10
8422;DHT22;4248;48.196;10.924;2022-10-16T04:46:20;13.80;67.30
8422;DHT22;4248;48.196;10.924;2022-10-16T04:48:45;13.80;68.20
8422;DHT22;4248;48.196;10.924;2022-10-16T04:51:12;13.60;68.80
8422;DHT22;4248;48.196;10.924;2022-10-16T04:53:37;13.50;69.30
8422;DHT22;4248;48.196;10.924;2022-10-16T04:56:03;13.50;69.70
8422;DHT22;4248;48.196;10.924;2022-10-16T04:58:29;13.30;69.80
8422;DHT22;4248;48.196;10.924;2022-10-16T05:00:54;13.30;70.00
8422;DHT22;4248;48.196;10.924;2022-10-16T05:03:20;13.20;70.10
8422;DHT22;4248;48.196;10.924;2022-10-16T05:05:46;13.10;70.10
8422;DHT22;4248;48.196;10.924;2022-10-16T05:08:13;13.10;70.20
8422;DHT22;4248;48.196;10.924;2022-10-16T05:10:42;13.00;70.40
8422;DHT22;4248;48.196;10.924;2022-10-16T05:13:08;13.00;70.50
8422;DHT22;4248;48.196;10.924;2022-10-16T05:15:33;13.00;70.60
8422;DHT22;4248;48.196;10.924;2022-10-16T05:17:59;13.00;70.60
8422;DHT22;4248;48.196;10.924;2022-10-16T05:20:25;12.90;70.50
8422;DHT22;4248;48.196;10.924;2022-10-16T05:22:50;12.90;70.40
8422;DHT22;4248;48.196;10.924;2022-10-16T05:25:16;12.90;70.30
8422;DHT22;4248;48.196;10.924;2022-10-16T05:27:41;13.00;70.10
8422;DHT22;4248;48.196;10.924;2022-10-16T05:30:07;13.00;70.00
8422;DHT22;4248;48.196;10.924;2022-10-16T05:32:33;13.00;69.90
8422;DHT22;4248;48.196;10.924;2022-10-16T05:34:58;13.00;69.80
8422;DHT22;4248;48.196;10.924;2022-10-16T05:37:25;13.00;69.70
8422;DHT22;4248;48.196;10.924;2022-10-16T05:39:51;13.00;69.60
8422;DHT22;4248;48.196;10.924;2022-10-16T05:42:16;12.90;69.70
8422;DHT22;4248;48.196;10.924;2022-10-16T05:44:42;12.90;70.00
8422;DHT22;4248;48.196;10.924;2022-10-16T05:47:07;12.80;70.00
8422;DHT22;4248;48.196;10.924;2022-10-16T05:49:33;12.80;70.30
8422;DHT22;4248;48.196;10.924;2022-10-16T05:51:58;12.70;70.20
8422;DHT22;4248;48.196;10.924;2022-10-16T05:54:24;12.70;70.30
8422;DHT22;4248;48.196;10.924;2022-10-16T05:56:49;12.70;70.50
8422;DHT22;4248;48.196;10.924;2022-10-16T05:59:15;12.70;70.40
8422;DHT22;4248;48.196;10.924;2022-10-16T06:01:40;12.80;70.50
8422;DHT22;4248;48.196;10.924;2022-10-16T06:04:06;12.70;70.30
8422;DHT22;4248;48.196;10.924;2022-10-16T06:06:31;12.80;70.40
8422;DHT22;4248;48.196;10.924;2022-10-16T06:08:57;12.80;70.70
8422;DHT22;4248;48.196;10.924;2022-10-16T06:11:29;12.80;70.60
8422;DHT22;4248;48.196;10.924;2022-10-16T06:13:57;12.80;70.60
8422;DHT22;4248;48.196;10.924;2022-10-16T06:16:24;12.80;70.60
8422;DHT22;4248;48.196;10.924;2022-10-16T06:18:54;12.90;70.70
8422;DHT22;4248;48.196;10.924;2022-10-16T06:21:23;12.90;70.70
8422;DHT22;4248;48.196;10.924;2022-10-16T06:23:50;13.00;70.60
8422;DHT22;4248;48.196;10.924;2022-10-16T06:26:18;12.90;70.50
8422;DHT22;4248;48.196;10.924;2022-10-16T06:28:44;12.90;70.50
8422;DHT22;4248;48.196;10.924;2022-10-16T06:31:11;12.90;70.60
8422;DHT22;4248;48.196;10.924;2022-10-16T06:33:38;13.00;71.60
8422;DHT22;4248;48.196;10.924;2022-10-16T06:36:06;13.00;70.30
8422;DHT22;4248;48.196;10.924;2022-10-16T06:38:32;13.10;70.20
8422;DHT22;4248;48.196;10.924;2022-10-16T06:40:58;13.10;69.80
8422;DHT22;4248;48.196;10.924;2022-10-16T06:43:24;13.20;69.80
8422;DHT22;4248;48.196;10.924;2022-10-16T06:45:54;13.20;69.60
8422;DHT22;4248;48.196;10.924;2022-10-16T06:48:20;13.30;69.40
8422;DHT22;4248;48.196;10.924;2022-10-16T06:51:00;13.40;69.20
8422;DHT22;4248;48.196;10.924;2022-10-16T06:53:27;13.50;69.00
8422;DHT22;4248;48.196;10.924;2022-10-16T06:55:53;13.60;68.80
8422;DHT22;4248;48.196;10.924;2022-10-16T06:58:19;13.80;68.60
8422;DHT22;4248;48.196;10.924;2022-10-16T07:00:45;13.90;68.30
8422;DHT22;4248;48.196;10.924;2022-10-16T07:03:11;14.10;68.30
8422;DHT22;4248;48.196;10.924;2022-10-16T07:05:41;14.20;68.30
8422;DHT22;4248;48.196;10.924;2022-10-16T07:08:08;14.30;68.40
8422;DHT22;4248;48.196;10.924;2022-10-16T07:10:34;14.40;68.50
8422;DHT22;4248;48.196;10.924;2022-10-16T07:12:59;14.40;68.50
8422;DHT22;4248;48.196;10.924;2022-10-16T07:15:26;14.40;68.50
8422;DHT22;4248;48.196;10.924;2022-10-16T07:17:52;14.60;68.80
8422;DHT22;4248;48.196;10.924;2022-10-16T07:20:17;14.80;68.60
8422;DHT22;4248;48.196;10.924;2022-10-16T07:22:43;15.10;68.30
8422;DHT22;4248;48.196;10.924;2022-10-16T07:25:09;15.20;67.80
8422;DHT22;4248;48.196;10.924;2022-10-16T07:27:35;15.30;67.30
8422;DHT22;4248;48.196;10.924;2022-10-16T07:30:00;15.70;66.90
8422;DHT22;4248;48.196;10.924;2022-10-16T07:32:26;15.90;66.60
8422;DHT22;4248;48.196;10.924;2022-10-16T07:34:53;16.00;66.10
8422;DHT22;4248;48.196;10.924;2022-10-16T07:37:18;16.30;65.90
8422;DHT22;4248;48.196;10.924;2022-10-16T07:39:44;16.50;65.50
8422;DHT22;4248;48.196;10.924;2022-10-16T07:42:09;16.60;65.20
8422;DHT22;4248;48.196;10.924;2022-10-16T07:44:35;16.70;65.00
8422;DHT22;4248;48.196;10.924;2022-10-16T07:47:00;16.80;64.90
8422;DHT22;4248;48.196;10.924;2022-10-16T07:49:26;17.00;64.70
8422;DHT22;4248;48.196;10.924;2022-10-16T07:51:51;17.10;64.60
8422;DHT22;4248;48.196;10.924;2022-10-16T07:54:17;18.70;65.70
8422;DHT22;4248;48.196;10.924;2022-10-16T07:56:42;17.30;64.20
8422;DHT22;4248;48.196;10.924;2022-10-16T07:59:08;17.40;64.10
8422;DHT22;4248;48.196;10.924;2022-10-16T08:01:33;17.50;64.10
8422;DHT22;4248;48.196;10.924;2022-10-16T08:03:59;17.70;63.80
8422;DHT22;4248;48.196;10.924;2022-10-16T08:06:24;17.90;63.50
8422;DHT22;4248;48.196;10.924;2022-10-16T08:08:50;18.00;63.10
8422;DHT22;4248;48.196;10.924;2022-10-16T08:11:16;18.20;62.70
8422;DHT22;4248;48.196;10.924;2022-10-16T08:13:42;18.60;62.00
8422;DHT22;4248;48.196;10.924;2022-10-16T08:16:07;18.90;60.70
8422;DHT22;4248;48.196;10.924;2022-10-16T08:18:34;19.30;60.20
8422;DHT22;4248;48.196;10.924;2022-10-16T08:21:01;19.60;59.20
8422;DHT22;4248;48.196;10.924;2022-10-16T08:23:27;19.80;58.70
8422;DHT22;4248;48.196;10.924;2022-10-16T08:25:56;20.00;57.70
8422;DHT22;4248;48.196;10.924;2022-10-16T08:28:27;20.10;57.00
8422;DHT22;4248;48.196;10.924;2022-10-16T08:30:53;20.10;56.90
8422;DHT22;4248;48.196;10.924;2022-10-16T08:33:18;20.10;57.20
8422;DHT22;4248;48.196;10.924;2022-10-16T08:35:53;20.10;57.30
8422;DHT22;4248;48.196;10.924;2022-10-16T08:38:20;20.10;57.10
8422;DHT22;4248;48.196;10.924;2022-10-16T08:40:45;20.10;57.00
8422;DHT22;4248;48.196;10.924;2022-10-16T08:43:53;20.20;56.70
8422;DHT22;4248;48.196;10.924;2022-10-16T08:48:46;20.50;56.20
8422;DHT22;4248;48.196;10.924;2022-10-16T08:54:03;20.60;55.90
8422;DHT22;4248;48.196;10.924;2022-10-16T08:56:28;20.60;55.60
8422;DHT22;4248;48.196;10.924;2022-10-16T08:58:54;20.40;55.90
8422;DHT22;4248;48.196;10.924;2022-10-16T09:01:22;20.50;55.90
8422;DHT22;4248;48.196;10.924;2022-10-16T09:04:00;20.80;55.50
8422;DHT22;4248;48.196;10.924;2022-10-16T09:06:43;20.80;55.00
8422;DHT22;4248;48.196;10.924;2022-10-16T09:23:18;21.50;52.80
8422;DHT22;4248;48.196;10.924;2022-10-16T09:25:47;21.50;51.30
8422;DHT22;4248;48.196;10.924;2022-10-16T09:28:14;21.60;51.10
8422;DHT22;4248;48.196;10.924;2022-10-16T09:30:40;21.70;50.60
8422;DHT22;4248;48.196;10.924;2022-10-16T09:33:06;22.20;50.20
8422;DHT22;4248;48.196;10.924;2022-10-16T09:35:45;22.10;49.50
8422;DHT22;4248;48.196;10.924;2022-10-16T09:38:32;22.30;48.40
8422;DHT22;4248;48.196;10.924;2022-10-16T09:41:22;22.50;47.40
8422;DHT22;4248;48.196;10.924;2022-10-16T09:43:48;22.80;47.20
8422;DHT22;4248;48.196;10.924;2022-10-16T09:46:31;22.80;45.20
8422;DHT22;4248;48.196;10.924;2022-10-16T09:48:59;22.80;45.50
8422;DHT22;4248;48.196;10.924;2022-10-16T09:51:36;23.00;45.50
8422;DHT22;4248;48.196;10.924;2022-10-16T09:54:14;23.00;45.80
8422;DHT22;4248;48.196;10.924;2022-10-16T09:56:39;23.20;44.00
8422;DHT22;4248;48.196;10.924;2022-10-16T09:59:12;23.40;44.10
8422;DHT22;4248;48.196;10.924;2022-10-16T10:01:39;23.60;43.10
8422;DHT22;4248;48.196;10.924;2022-10-16T10:04:06;23.70;43.00
8422;DHT22;4248;48.196;10.924;2022-10-16T10:06:35;23.80;42.50
8422;DHT22;4248;48.196;10.924;2022-10-16T10:14:27;24.00;41.50
8422;DHT22;4248;48.196;10.924;2022-10-16T10:19:28;23.70;42.10
8422;DHT22;4248;48.196;10.924;2022-10-16T10:21:53;23.40;42.80
8422;DHT22;4248;48.196;10.924;2022-10-16T10:24:19;23.40;42.70
8422;DHT22;4248;48.196;10.924;2022-10-16T10:26:53;23.60;42.20
8422;DHT22;4248;48.196;10.924;2022-10-16T10:35:01;24.20;40.40
8422;DHT22;4248;48.196;10.924;2022-10-16T10:49:32;24.50;38.20
8422;DHT22;4248;48.196;10.924;2022-10-16T11:05:52;23.80;36.70
8422;DHT22;4248;48.196;10.924;2022-10-16T11:09:08;23.90;36.40
8422;DHT22;4248;48.196;10.924;2022-10-16T11:14:11;24.20;36.10
8422;DHT22;4248;48.196;10.924;2022-10-16T11:16:43;24.10;35.50
8422;DHT22;4248;48.196;10.924;2022-10-16T11:19:25;24.10;36.00
8422;DHT22;4248;48.196;10.924;2022-10-16T11:22:01;24.00;35.90
8422;DHT22;4248;48.196;10.924;2022-10-16T11:26:56;24.10;36.50
8422;DHT22;4248;48.196;10.924;2022-10-16T11:29:28;23.70;36.30
8422;DHT22;4248;48.196;10.924;2022-10-16T11:31:59;23.60;36.10
8422;DHT22;4248;48.196;10.924;2022-10-16T11:34:38;23.60;37.20
8422;DHT22;4248;48.196;10.924;2022-10-16T11:37:14;23.40;37.10
8422;DHT22;4248;48.196;10.924;2022-10-16T11:39:43;23.50;37.10
8422;DHT22;4248;48.196;10.924;2022-10-16T11:50:48;23.20;36.10
8422;DHT22;4248;48.196;10.924;2022-10-16T11:55:39;23.40;35.50
8422;DHT22;4248;48.196;10.924;2022-10-16T11:58:35;23.60;35.50
8422;DHT22;4248;48.196;10.924;2022-10-16T12:09:31;24.10;33.50
8422;DHT22;4248;48.196;10.924;2022-10-16T12:11:58;24.00;33.00
8422;DHT22;4248;48.196;10.924;2022-10-16T12:17:20;23.90;32.60
8422;DHT22;4248;48.196;10.924;2022-10-16T12:20:12;23.80;32.50
8422;DHT22;4248;48.196;10.924;2022-10-16T12:23:16;23.70;32.60
8422;DHT22;4248;48.196;10.924;2022-10-16T12:25:54;23.70;32.40
8422;DHT22;4248;48.196;10.924;2022-10-16T12:28:22;23.60;32.10
8422;DHT22;4248;48.196;10.924;2022-10-16T12:31:01;23.40;33.10
8422;DHT22;4248;48.196;10.924;2022-10-16T12:33:29;23.30;33.10
8422;DHT22;4248;48.196;10.924;2022-10-16T12:35:57;23.40;33.50
8422;DHT22;4248;48.196;10.924;2022-10-16T12:38:58;23.50;33.20
8422;DHT22;4248;48.196;10.924;2022-10-16T12:41:28;23.50;32.20
8422;DHT22;4248;48.196;10.924;2022-10-16T12:43:54;23.60;32.10
8422;DHT22;4248;48.196;10.924;2022-10-16T12:49:06;23.60;31.30
8422;DHT22;4248;48.196;10.924;2022-10-16T12:54:22;23.70;32.20
8422;DHT22;4248;48.196;10.924;2022-10-16T12:57:03;23.50;31.70
8422;DHT22;4248;48.196;10.924;2022-10-16T13:10:51;23.60;31.10
8422;DHT22;4248;48.196;10.924;2022-10-16T13:22:00;23.70;30.60
8422;DHT22;4248;48.196;10.924;2022-10-16T13:24:55;23.70;30.90
8422;DHT22;4248;48.196;10.924;2022-10-16T13:30:16;23.40;31.10
8422;DHT22;4248;48.196;10.924;2022-10-16T13:32:46;23.30;30.90
8422;DHT22;4248;48.196;10.924;2022-10-16T13:35:24;23.30;30.80
8422;DHT22;4248;48.196;10.924;2022-10-16T13:37:50;23.90;30.40
8422;DHT22;4248;48.196;10.924;2022-10-16T13:40:22;23.40;30.30
8422;DHT22;4248;48.196;10.924;2022-10-16T13:42:49;23.40;30.00
8422;DHT22;4248;48.196;10.924;2022-10-16T13:45:24;23.50;30.00
8422;DHT22;4248;48.196;10.924;2022-10-16T13:48:04;23.40;30.40
8422;DHT22;4248;48.196;10.924;2022-10-16T13:50:31;23.40;30.60
8422;DHT22;4248;48.196;10.924;2022-10-16T13:53:05;23.40;30.50
8422;DHT22;4248;48.196;10.924;2022-10-16T13:55:31;23.30;30.20
8422;DHT22;4248;48.196;10.924;2022-10-16T13:58:06;23.20;30.60
8422;DHT22;4248;48.196;10.924;2022-10-16T14:00:32;23.20;29.90
8422;DHT22;4248;48.196;10.924;2022-10-16T14:03:05;23.20;30.00
8422;DHT22;4248;48.196;10.924;2022-10-16T14:05:32;23.40;30.00
8422;DHT22;4248;48.196;10.924;2022-10-16T14:07:58;23.10;30.20
8422;DHT22;4248;48.196;10.924;2022-10-16T14:10:30;23.30;30.60
8422;DHT22;4248;48.196;10.924;2022-10-16T14:13:07;23.20;30.30
8422;DHT22;4248;48.196;10.924;2022-10-16T14:15:35;23.20;30.10
8422;DHT22;4248;48.196;10.924;2022-10-16T14:18:01;23.20;30.50
8422;DHT22;4248;48.196;10.924;2022-10-16T14:20:30;23.20;30.50
8422;DHT22;4248;48.196;10.924;2022-10-16T14:23:21;23.20;30.10
8422;DHT22;4248;48.196;10.924;2022-10-16T14:25:47;23.10;30.00
8422;DHT22;4248;48.196;10.924;2022-10-16T14:30:53;23.10;30.10
8422;DHT22;4248;48.196;10.924;2022-10-16T14:33:31;23.10;29.40
8422;DHT22;4248;48.196;10.924;2022-10-16T14:38:36;23.20;28.30
8422;DHT22;4248;48.196;10.924;2022-10-16T14:41:03;23.40;28.30
8422;DHT22;4248;48.196;10.924;2022-10-16T14:43:57;23.30;28.00
8422;DHT22;4248;48.196;10.924;2022-10-16T14:46:37;23.30;27.00
8422;DHT22;4248;48.196;10.924;2022-10-16T14:51:39;23.30;27.70
8422;DHT22;4248;48.196;10.924;2022-10-16T14:54:11;23.30;27.80
8422;DHT22;4248;48.196;10.924;2022-10-16T14:56:56;23.20;27.80
8422;DHT22;4248;48.196;10.924;2022-10-16T14:59:37;23.20;27.70
8422;DHT22;4248;48.196;10.924;2022-10-16T15:02:25;23.10;27.90
8422;DHT22;4248;48.196;10.924;2022-10-16T15:04:52;23.10;28.40
8422;DHT22;4248;48.196;10.924;2022-10-16T15:07:18;23.10;28.60
8422;DHT22;4248;48.196;10.924;2022-10-16T15:09:44;23.00;28.50
8422;DHT22;4248;48.196;10.924;2022-10-16T15:12:09;23.00;28.60
8422;DHT22;4248;48.196;10.924;2022-10-16T15:14:35;22.90;28.40
8422;DHT22;4248;48.196;10.924;2022-10-16T15:17:00;23.60;29.10
8422;DHT22;4248;48.196;10.924;2022-10-16T15:19:26;22.70;28.60
8422;DHT22;4248;48.196;10.924;2022-10-16T15:21:51;22.70;28.80
8422;DHT22;4248;48.196;10.924;2022-10-16T15:24:18;22.60;29.10
8422;DHT22;4248;48.196;10.924;2022-10-16T15:26:43;22.50;29.30
8422;DHT22;4248;48.196;10.924;2022-10-16T15:29:11;22.60;29.70
8422;DHT22;4248;48.196;10.924;2022-10-16T15:31:37;22.30;29.70
8422;DHT22;4248;48.196;10.924;2022-10-16T15:34:03;22.20;29.90
8422;DHT22;4248;48.196;10.924;2022-10-16T15:36:32;22.20;30.10
8422;DHT22;4248;48.196;10.924;2022-10-16T15:38:59;22.20;30.40
8422;DHT22;4248;48.196;10.924;2022-10-16T15:41:25;22.10;30.60
8422;DHT22;4248;48.196;10.924;2022-10-16T15:43:51;22.00;30.80
8422;DHT22;4248;48.196;10.924;2022-10-16T15:46:19;21.70;30.20
8422;DHT22;4248;48.196;10.924;2022-10-16T15:48:46;21.70;31.40
8422;DHT22;4248;48.196;10.924;2022-10-16T15:51:12;21.60;31.90
8422;DHT22;4248;48.196;10.924;2022-10-16T15:53:38;21.50;32.50
8422;DHT22;4248;48.196;10.924;2022-10-16T15:56:04;21.40;32.70
8422;DHT22;4248;48.196;10.924;2022-10-16T15:58:31;21.30;33.30
8422;DHT22;4248;48.196;10.924;2022-10-16T16:00:58;21.20;34.00
8422;DHT22;4248;48.196;10.924;2022-10-16T16:03:26;21.10;34.50
8422;DHT22;4248;48.196;10.924;2022-10-16T16:05:52;20.90;35.00
8422;DHT22;4248;48.196;10.924;2022-10-16T16:08:18;20.20;34.30
8422;DHT22;4248;48.196;10.924;2022-10-16T16:10:43;20.70;35.70
8422;DHT22;4248;48.196;10.924;2022-10-16T16:13:09;20.60;36.30
8422;DHT22;4248;48.196;10.924;2022-10-16T16:15:36;20.50;36.90
8422;DHT22;4248;48.196;10.924;2022-10-16T16:18:03;20.30;37.20
8422;DHT22;4248;48.196;10.924;2022-10-16T16:20:31;20.10;37.40
8422;DHT22;4248;48.196;10.924;2022-10-16T16:22:56;20.00;38.00
8422;DHT22;4248;48.196;10.924;2022-10-16T16:25:22;19.90;38.50
8422;DHT22;4248;48.196;10.924;2022-10-16T16:27:47;19.70;38.30
8422;DHT22;4248;48.196;10.924;2022-10-16T16:30:13;19.60;39.40
8422;DHT22;4248;48.196;10.924;2022-10-16T16:32:38;19.50;39.80
8422;DHT22;4248;48.196;10.924;2022-10-16T16:35:04;19.40;40.30
8422;DHT22;4248;48.196;10.924;2022-10-16T16:37:30;19.30;40.80
8422;DHT22;4248;48.196;10.924;2022-10-16T16:39:56;19.20;41.20
8422;DHT22;4248;48.196;10.924;2022-10-16T16:42:25;19.10;41.60
8422;DHT22;4248;48.196;10.924;2022-10-16T16:44:51;19.00;42.00
8422;DHT22;4248;48.196;10.924;2022-10-16T16:47:16;18.90;42.30
8422;DHT22;4248;48.196;10.924;2022-10-16T16:49:42;18.80;42.60
8422;DHT22;4248;48.196;10.924;2022-10-16T16:52:07;18.70;43.10
8422;DHT22;4248;48.196;10.924;2022-10-16T16:54:33;18.50;43.90
8422;DHT22;4248;48.196;10.924;2022-10-16T16:56:58;18.30;44.90
8422;DHT22;4248;48.196;10.924;2022-10-16T16:59:24;18.10;47.10
8422;DHT22;4248;48.196;10.924;2022-10-16T17:01:50;18.00;45.80
8422;DHT22;4248;48.196;10.924;2022-10-16T17:04:16;17.90;46.60
8422;DHT22;4248;48.196;10.924;2022-10-16T17:06:42;17.70;46.60
8422;DHT22;4248;48.196;10.924;2022-10-16T17:09:08;17.70;47.80
8422;DHT22;4248;48.196;10.924;2022-10-16T17:11:34;17.60;47.80
8422;DHT22;4248;48.196;10.924;2022-10-16T17:14:01;17.60;48.20
8422;DHT22;4248;48.196;10.924;2022-10-16T17:16:33;17.60;47.60
8422;DHT22;4248;48.196;10.924;2022-10-16T17:19:04;17.60;48.50
8422;DHT22;4248;48.196;10.924;2022-10-16T17:21:30;17.60;48.40
8422;DHT22;4248;48.196;10.924;2022-10-16T17:23:57;17.60;48.30
8422;DHT22;4248;48.196;10.924;2022-10-16T17:26:23;17.60;47.30
8422;DHT22;4248;48.196;10.924;2022-10-16T17:28:54;17.60;48.30
8422;DHT22;4248;48.196;10.924;2022-10-16T17:31:23;17.60;48.30
8422;DHT22;4248;48.196;10.924;2022-10-16T17:33:49;17.60;48.20
8422;DHT22;4248;48.196;10.924;2022-10-16T17:36:16;17.60;47.10
8422;DHT22;4248;48.196;10.924;2022-10-16T17:38:43;17.70;48.20
8422;DHT22;4248;48.196;10.924;2022-10-16T17:43:40;17.60;48.10
8422;DHT22;4248;48.196;10.924;2022-10-16T17:46:07;17.60;48.30
8422;DHT22;4248;48.196;10.924;2022-10-16T17:48:42;17.60;48.20
8422;DHT22;4248;48.196;10.924;2022-10-16T17:51:09;17.50;48.30
8422;DHT22;4248;48.196;10.924;2022-10-16T17:53:36;17.50;48.20
8422;DHT22;4248;48.196;10.924;2022-10-16T17:56:06;17.50;48.20
8422;DHT22;4248;48.196;10.924;2022-10-16T17:58:32;17.50;48.50
8422;DHT22;4248;48.196;10.924;2022-10-16T18:00:57;17.40;48.50
8422;DHT22;4248;48.196;10.924;2022-10-16T18:03:23;17.40;48.70
8422;DHT22;4248;48.196;10.924;2022-10-16T18:05:54;17.30;48.70
8422;DHT22;4248;48.196;10.924;2022-10-16T18:08:21;17.30;48.80
8422;DHT22;4248;48.196;10.924;2022-10-16T18:10:48;17.20;49.00
8422;DHT22;4248;48.196;10.924;2022-10-16T18:13:15;17.20;49.10
8422;DHT22;4248;48.196;10.924;2022-10-16T18:15:40;17.20;49.30
8422;DHT22;4248;48.196;10.924;2022-10-16T18:18:06;17.10;48.60
8422;DHT22;4248;48.196;10.924;2022-10-16T18:20:31;17.10;49.80